createdAt,value
2022-09-16T00:01:01.763Z,77.37
2022-09-16T00:03:28.992Z,77.36
2022-09-16T00:05:56.159Z,77.39
2022-09-16T00:08:23.358Z,77.22
2022-09-16T00:10:50.800Z,77.32
2022-09-16T00:13:18.721Z,77.53
2022-09-16T00:15:50.937Z,77.55
2022-09-16T00:18:19.617Z,77.62
2022-09-16T00:20:49.202Z,77.44
2022-09-16T00:23:16.937Z,77.29
2022-09-16T00:25:44.058Z,76.88
2022-09-16T00:28:11.167Z,76.69
2022-09-16T00:30:38.280Z,76.06
2022-09-16T00:33:05.449Z,75.79
2022-09-16T00:35:32.596Z,75.97
2022-09-16T00:37:59.724Z,75.83
2022-09-16T00:40:26.960Z,75.86
2022-09-16T00:42:54.119Z,75.74
2022-09-16T00:45:24.684Z,75.63
2022-09-16T00:47:57.396Z,75.69
2022-09-16T00:50:51.316Z,75.57
2022-09-16T00:53:25.329Z,75.73
2022-09-16T00:55:57.429Z,75.82
2022-09-16T00:58:51.641Z,75.92
2022-09-16T01:01:19.762Z,75.69
2022-09-16T01:03:52.520Z,75.63
2022-09-16T01:06:21.229Z,75.11
2022-09-16T01:08:50.026Z,74.95
2022-09-16T01:11:17.222Z,74.84
2022-09-16T01:13:45.820Z,74.54
2022-09-16T01:16:26.448Z,74.07
2022-09-16T01:19:05.114Z,73.49
2022-09-16T01:21:41.186Z,73.79
2022-09-16T01:24:25.316Z,73.65
2022-09-16T01:26:55.435Z,73.64
2022-09-16T01:29:43.992Z,73.35
2022-09-16T01:32:20.308Z,73.37
2022-09-16T01:34:58.492Z,73.89
2022-09-16T01:38:07.078Z,73.75
2022-09-16T01:41:01.305Z,73.60
2022-09-16T01:43:40.818Z,73.55
2022-09-16T01:46:18.509Z,73.94
2022-09-16T01:48:55.688Z,74.04
2022-09-16T01:51:58.848Z,74.34
2022-09-16T01:54:34.833Z,73.83
2022-09-16T01:57:06.292Z,73.81
2022-09-16T01:59:42.473Z,74.04
2022-09-16T02:02:19.530Z,74.15
2022-09-16T02:04:54.747Z,74.51
2022-09-16T02:07:27.374Z,74.71
2022-09-16T02:09:58.401Z,74.87
2022-09-16T02:12:33.748Z,75.05
2022-09-16T02:15:06.886Z,75.53
2022-09-16T02:17:38.099Z,75.45
2022-09-16T02:20:12.596Z,75.70
2022-09-16T02:22:45.541Z,75.81
2022-09-16T02:25:15.679Z,75.46
2022-09-16T02:27:45.896Z,75.60
2022-09-16T02:30:19.125Z,75.34
2022-09-16T02:32:49.067Z,75.15
2022-09-16T02:35:19.383Z,74.92
2022-09-16T02:37:59.018Z,74.81
2022-09-16T02:40:34.846Z,75.10
2022-09-16T02:43:03.054Z,75.24
2022-09-16T02:45:51.324Z,75.39
2022-09-16T02:48:31.746Z,75.40
2022-09-16T02:51:01.743Z,75.43
2022-09-16T02:53:47.007Z,75.20
2022-09-16T02:56:24.858Z,75.37
2022-09-16T02:58:52.159Z,75.62
2022-09-16T03:01:20.806Z,75.62
2022-09-16T03:03:48.295Z,75.54
2022-09-16T03:06:25.084Z,75.65
2022-09-16T03:08:54.829Z,75.37
2022-09-16T03:11:30.838Z,75.62
2022-09-16T03:14:23.828Z,75.94
2022-09-16T03:16:53.990Z,76.08
2022-09-16T03:19:36.079Z,76.20
2022-09-16T03:22:31.561Z,75.98
2022-09-16T03:25:07.929Z,76.22
2022-09-16T03:27:46.965Z,76.36
2022-09-16T03:30:14.756Z,76.31
2022-09-16T03:32:50.702Z,76.07
2022-09-16T03:35:26.916Z,76.02
2022-09-16T03:37:59.461Z,75.82
2022-09-16T03:40:30.119Z,75.98
2022-09-16T03:42:58.008Z,76.28
2022-09-16T03:45:25.815Z,76.61
2022-09-16T03:47:53.805Z,77.95
2022-09-16T03:50:21.576Z,78.70
2022-09-16T03:52:48.807Z,79.21
2022-09-16T03:55:16.986Z,79.64
2022-09-16T03:57:44.280Z,79.65
2022-09-16T04:00:11.911Z,80.18
2022-09-16T04:02:39.435Z,80.36
2022-09-16T04:05:08.249Z,80.44
2022-09-16T04:07:35.952Z,80.85
2022-09-16T04:10:04.911Z,81.77
2022-09-16T04:12:32.170Z,82.54
2022-09-16T04:15:00.871Z,82.65
2022-09-16T04:17:31.956Z,82.89
2022-09-16T04:19:59.278Z,83.48
2022-09-16T04:22:30.849Z,83.65
2022-09-16T04:24:58.379Z,83.88
2022-09-16T04:27:25.840Z,84.02
2022-09-16T04:29:53.172Z,84.64
2022-09-16T04:32:20.511Z,84.95
2022-09-16T04:34:47.727Z,84.76
2022-09-16T04:37:15.023Z,84.71
2022-09-16T04:39:42.236Z,84.65
2022-09-16T04:42:12.385Z,84.87
2022-09-16T04:44:39.821Z,85.04
2022-09-16T04:47:07.171Z,85.19
2022-09-16T04:49:34.602Z,85.72
2022-09-16T04:52:02.050Z,85.88
2022-09-16T04:54:29.282Z,86.08
2022-09-16T04:56:57.687Z,85.70
2022-09-16T04:59:24.952Z,86.03
2022-09-16T05:01:52.368Z,86.16
2022-09-16T05:04:19.684Z,86.30
2022-09-16T05:06:47.175Z,86.08
2022-09-16T05:09:14.726Z,86.85
2022-09-16T05:11:42.255Z,87.08
2022-09-16T05:14:15.982Z,87.04
2022-09-16T05:16:44.150Z,86.87
2022-09-16T05:19:13.199Z,86.88
2022-09-16T05:21:41.539Z,87.03
2022-09-16T05:24:10.683Z,86.90
2022-09-16T05:26:40.239Z,87.08
2022-09-16T05:29:17.349Z,86.91
2022-09-16T05:31:47.653Z,86.39
2022-09-16T05:34:17.922Z,85.95
2022-09-16T05:36:47.659Z,86.07
2022-09-16T05:39:23.059Z,85.74
2022-09-16T05:41:56.905Z,85.91
2022-09-16T05:44:25.245Z,85.43
2022-09-16T05:46:52.957Z,84.86
2022-09-16T05:49:23.773Z,84.47
2022-09-16T05:51:52.056Z,83.80
2022-09-16T05:54:19.662Z,83.50
2022-09-16T05:56:47.642Z,82.80
2022-09-16T05:59:16.291Z,82.69
2022-09-16T06:01:44.050Z,83.05
2022-09-16T06:04:13.537Z,83.65
2022-09-16T06:06:43.126Z,83.50
2022-09-16T06:09:20.217Z,84.03
2022-09-16T06:11:49.894Z,84.41
2022-09-16T06:14:18.519Z,84.29
2022-09-16T06:16:46.561Z,84.19
2022-09-16T06:19:15.833Z,83.99
2022-09-16T06:21:44.045Z,83.59
2022-09-16T06:24:13.179Z,82.98
2022-09-16T06:26:42.151Z,82.49
2022-09-16T06:29:10.508Z,83.10
2022-09-16T06:31:38.574Z,83.26
2022-09-16T06:34:07.663Z,83.67
2022-09-16T06:36:40.374Z,83.05
2022-09-16T06:39:12.384Z,82.78
2022-09-16T06:41:39.849Z,83.01
2022-09-16T06:44:07.216Z,82.74
2022-09-16T06:46:34.460Z,81.43
2022-09-16T06:49:05.704Z,79.82
2022-09-16T06:51:34.824Z,78.08
2022-09-16T06:54:05.094Z,77.03
2022-09-16T06:56:34.141Z,76.16
2022-09-16T06:59:01.514Z,76.96
2022-09-16T07:01:30.554Z,75.08
2022-09-16T07:03:58.996Z,74.70
2022-09-16T07:09:17.356Z,74.49
2022-09-16T07:11:44.650Z,71.65
2022-09-16T07:14:12.390Z,72.87
2022-09-16T07:16:39.762Z,74.58
2022-09-16T07:19:07.313Z,75.87
2022-09-16T07:21:34.534Z,76.93
2022-09-16T07:24:03.023Z,75.75
2022-09-16T07:26:33.120Z,75.81
2022-09-16T07:29:02.330Z,76.49
2022-09-16T07:31:33.153Z,74.97
2022-09-16T07:34:04.882Z,75.58
2022-09-16T07:36:43.990Z,74.64
2022-09-16T07:39:13.421Z,73.59
2022-09-16T07:41:42.616Z,72.42
2022-09-16T07:44:14.152Z,73.03
2022-09-16T07:46:42.013Z,72.07
2022-09-16T07:49:12.797Z,70.69
2022-09-16T07:51:40.150Z,69.89
2022-09-16T07:54:10.726Z,67.84
2022-09-16T07:56:39.360Z,68.00
2022-09-16T07:59:13.083Z,66.62
2022-09-16T08:01:43.871Z,65.23
2022-09-16T08:04:12.249Z,64.96
2022-09-16T08:06:40.191Z,63.00
2022-09-16T08:09:37.651Z,61.74
2022-09-16T08:11:55.302Z,62.76
2022-09-16T08:14:22.595Z,59.75
2022-09-16T08:16:53.045Z,57.77
2022-09-16T08:19:22.591Z,54.78
2022-09-16T08:21:50.224Z,54.75
2022-09-16T08:24:17.488Z,52.82
2022-09-16T08:26:44.800Z,52.29
2022-09-16T08:29:12.701Z,52.80
2022-09-16T08:31:40.141Z,54.02
2022-09-16T08:34:07.459Z,52.58
2022-09-16T08:36:34.916Z,53.28
2022-09-16T08:39:02.144Z,54.71
2022-09-16T08:41:41.544Z,51.83
2022-09-16T08:44:46.167Z,52.36
2022-09-16T08:47:50.788Z,51.33
2022-09-16T08:50:25.357Z,51.45
2022-09-16T08:52:54.318Z,51.66
2022-09-16T08:55:32.852Z,53.23
2022-09-16T08:58:09.996Z,53.78
2022-09-16T09:00:37.766Z,55.74
2022-09-16T09:03:38.575Z,57.34
2022-09-16T09:06:39.031Z,57.67
2022-09-16T09:09:43.778Z,58.50
2022-09-16T09:12:21.845Z,60.44
2022-09-16T09:14:57.914Z,60.44
2022-09-16T09:17:48.002Z,59.95
2022-09-16T09:20:54.283Z,59.57
2022-09-16T09:23:24.554Z,60.94
2022-09-16T09:26:06.901Z,60.24
2022-09-16T09:28:52.210Z,60.60
2022-09-16T09:31:41.418Z,57.98
2022-09-16T09:34:34.974Z,56.18
2022-09-16T09:37:29.281Z,54.74
2022-09-16T09:40:14.858Z,53.03
2022-09-16T09:42:49.100Z,50.05
2022-09-16T09:45:30.201Z,50.02
2022-09-16T09:48:02.433Z,50.25
2022-09-16T09:50:46.876Z,49.28
2022-09-16T09:53:35.149Z,50.59
2022-09-16T09:56:11.342Z,52.01
2022-09-16T09:58:51.528Z,53.89
2022-09-16T10:01:18.862Z,55.06
2022-09-16T10:03:48.907Z,56.68
2022-09-16T10:06:28.776Z,55.96
2022-09-16T10:08:58.380Z,58.25
2022-09-16T10:11:31.443Z,56.88
2022-09-16T10:14:00.978Z,56.54
2022-09-16T10:16:38.044Z,57.58
2022-09-16T10:19:18.566Z,57.61
2022-09-16T10:21:54.563Z,58.60
2022-09-16T10:24:40.243Z,59.13
2022-09-16T10:27:37.818Z,58.57
2022-09-16T10:30:05.119Z,59.06
2022-09-16T10:32:40.025Z,59.98
2022-09-16T10:35:08.408Z,60.27
2022-09-16T10:37:37.183Z,60.35
2022-09-16T10:40:06.995Z,59.81
2022-09-16T10:42:34.632Z,59.59
2022-09-16T10:45:19.075Z,60.11
2022-09-16T10:47:51.853Z,61.06
2022-09-16T10:50:20.328Z,61.19
2022-09-16T10:52:48.715Z,61.04
2022-09-16T10:55:28.731Z,60.97
2022-09-16T10:58:17.298Z,61.75
2022-09-16T11:01:32.378Z,61.98
2022-09-16T11:04:21.218Z,62.45
2022-09-16T11:07:16.009Z,62.19
2022-09-16T11:10:00.540Z,62.24
2022-09-16T11:12:46.147Z,63.29
2022-09-16T11:15:25.383Z,63.70
2022-09-16T11:18:29.832Z,64.70
2022-09-16T11:21:19.897Z,64.94
2022-09-16T11:24:15.104Z,65.71
2022-09-16T11:26:59.647Z,65.42
2022-09-16T11:29:51.988Z,66.62
2022-09-16T11:32:25.418Z,66.34
2022-09-16T11:35:18.991Z,66.24
2022-09-16T11:37:59.909Z,66.34
2022-09-16T11:40:48.583Z,65.88
2022-09-16T11:43:30.916Z,66.52
2022-09-16T11:46:25.252Z,67.20
2022-09-16T11:49:16.320Z,66.55
2022-09-16T11:52:10.207Z,65.78
2022-09-16T11:54:55.753Z,64.49
2022-09-16T11:57:29.607Z,63.47
2022-09-16T12:00:06.551Z,62.49
2022-09-16T12:03:16.936Z,62.67
2022-09-16T12:05:53.465Z,62.24
2022-09-16T12:08:55.825Z,63.28
2022-09-16T12:11:43.113Z,64.00
2022-09-16T12:14:19.542Z,64.56
2022-09-16T12:16:55.419Z,64.52
2022-09-16T12:19:34.871Z,64.46
2022-09-16T12:22:16.936Z,64.19
2022-09-16T12:24:47.343Z,63.77
2022-09-16T12:27:39.116Z,63.83
2022-09-16T12:30:36.264Z,62.80
2022-09-16T12:33:29.154Z,63.52
2022-09-16T12:36:19.100Z,61.67
2022-09-16T12:38:49.072Z,62.29
2022-09-16T12:42:04.177Z,62.90
2022-09-16T12:44:54.723Z,62.40
2022-09-16T12:47:37.238Z,61.86
2022-09-16T12:50:31.822Z,62.85
2022-09-16T12:53:01.702Z,63.19
2022-09-16T12:55:31.708Z,63.02
2022-09-16T12:58:14.188Z,64.43
2022-09-16T13:00:51.433Z,63.78
2022-09-16T13:03:24.186Z,64.30
2022-09-16T13:05:53.351Z,64.21
2022-09-16T13:08:27.325Z,63.80
2022-09-16T13:11:41.228Z,63.51
2022-09-16T13:13:58.710Z,63.80
2022-09-16T13:16:35.172Z,65.17
2022-09-16T13:19:30.202Z,65.28
2022-09-16T13:22:14.292Z,64.93
2022-09-16T13:24:53.689Z,64.57
2022-09-16T13:27:34.612Z,65.12
2022-09-16T13:30:07.996Z,65.04
2022-09-16T13:32:50.593Z,65.23
2022-09-16T13:35:18.134Z,65.32
2022-09-16T13:37:46.591Z,65.42
2022-09-16T13:40:28.580Z,65.03
2022-09-16T13:43:07.998Z,65.06
2022-09-16T13:45:38.673Z,64.78
2022-09-16T13:48:16.772Z,64.74
2022-09-16T13:50:50.891Z,65.23
2022-09-16T13:53:32.935Z,64.65
2022-09-16T13:56:28.396Z,64.19
2022-09-16T13:59:09.216Z,64.45
2022-09-16T14:02:15.436Z,64.49
2022-09-16T14:05:21.489Z,65.15
2022-09-16T14:08:25.955Z,64.72
2022-09-16T14:10:56.083Z,64.28
2022-09-16T14:13:24.681Z,66.78
2022-09-16T14:15:59.333Z,67.26
2022-09-16T14:18:30.670Z,68.06
2022-09-16T14:21:02.781Z,68.96
2022-09-16T14:23:31.560Z,70.52
2022-09-16T14:26:17.588Z,71.44
2022-09-16T14:28:44.988Z,71.81
2022-09-16T14:31:32.589Z,71.69
2022-09-16T14:34:04.597Z,71.20
2022-09-16T14:36:36.234Z,70.90
2022-09-16T14:39:06.468Z,71.26
2022-09-16T14:41:48.031Z,71.32
2022-09-16T14:44:22.659Z,71.89
2022-09-16T14:46:56.756Z,72.57
2022-09-16T14:49:32.223Z,72.32
2022-09-16T14:52:02.689Z,72.68
2022-09-16T14:54:31.131Z,73.40
2022-09-16T14:57:23.076Z,73.97
2022-09-16T14:59:52.971Z,74.78
2022-09-16T15:02:22.911Z,74.94
2022-09-16T15:04:56.812Z,74.74
2022-09-16T15:07:28.681Z,74.58
2022-09-16T15:10:07.397Z,74.49
2022-09-16T15:12:44.664Z,74.49
2022-09-16T15:15:33.148Z,75.00
2022-09-16T15:18:02.201Z,75.75
2022-09-16T15:20:37.735Z,76.09
2022-09-16T15:23:10.908Z,76.78
2022-09-16T15:25:40.109Z,77.35
2022-09-16T15:28:15.788Z,77.65
2022-09-16T15:30:54.129Z,77.96
2022-09-16T15:33:40.807Z,78.38
2022-09-16T15:36:32.576Z,78.96
2022-09-16T15:39:00.096Z,79.06
2022-09-16T15:41:27.959Z,78.97
2022-09-16T15:43:55.175Z,78.60
2022-09-16T15:46:23.762Z,78.94
2022-09-16T15:49:01.851Z,79.17
2022-09-16T15:51:35.495Z,79.04
2022-09-16T15:54:15.369Z,78.95
2022-09-16T15:57:02.848Z,78.64
2022-09-16T16:00:10.885Z,78.62
2022-09-16T16:02:49.517Z,78.31
2022-09-16T16:05:22.415Z,78.68
2022-09-16T16:07:51.986Z,78.35
2022-09-16T16:10:22.877Z,78.37
2022-09-16T16:12:52.995Z,78.69
2022-09-16T16:15:25.221Z,78.66
2022-09-16T16:17:54.540Z,78.48
2022-09-16T16:20:21.862Z,78.73
2022-09-16T16:22:49.337Z,78.99
2022-09-16T16:25:17.038Z,79.19
2022-09-16T16:27:44.464Z,79.02
2022-09-16T16:30:12.337Z,79.27
2022-09-16T16:32:40.047Z,79.55
2022-09-16T16:35:08.065Z,79.74
2022-09-16T16:37:50.687Z,79.98
2022-09-16T16:40:17.972Z,80.20
2022-09-16T16:42:45.393Z,80.58
2022-09-16T16:45:16.012Z,80.80
2022-09-16T16:47:44.165Z,80.85
2022-09-16T16:50:11.534Z,81.06
2022-09-16T16:52:39.053Z,81.33
2022-09-16T16:55:06.787Z,81.21
2022-09-16T16:57:34.264Z,81.21
2022-09-16T17:00:01.739Z,81.47
2022-09-16T17:02:29.054Z,81.40
2022-09-16T17:04:56.293Z,81.25
2022-09-16T17:07:27.768Z,81.10
2022-09-16T17:09:57.471Z,81.65
2022-09-16T17:12:25.889Z,81.11
2022-09-16T17:14:53.133Z,81.25
2022-09-16T17:17:20.385Z,80.99
2022-09-16T17:19:47.627Z,81.16
2022-09-16T17:22:14.962Z,81.20
2022-09-16T17:24:42.326Z,81.48
2022-09-16T17:27:09.591Z,81.08
2022-09-16T17:29:36.849Z,81.10
2022-09-16T17:32:04.227Z,81.04
2022-09-16T17:34:31.926Z,81.07
2022-09-16T17:36:59.283Z,81.27
2022-09-16T17:39:26.592Z,81.40
2022-09-16T17:41:56.653Z,81.41
2022-09-16T17:44:24.724Z,81.67
2022-09-16T17:46:52.024Z,81.77
2022-09-16T17:49:24.141Z,81.91
2022-09-16T17:51:53.305Z,82.03
2022-09-16T17:54:21.833Z,82.08
2022-09-16T17:56:49.300Z,82.21
2022-09-16T17:59:18.210Z,82.47
2022-09-16T18:01:46.163Z,82.47
2022-09-16T18:04:13.640Z,82.61
2022-09-16T18:06:43.216Z,82.52
2022-09-16T18:09:12.001Z,82.49
2022-09-16T18:11:40.041Z,82.73
2022-09-16T18:14:10.897Z,82.63
2022-09-16T18:16:38.906Z,82.69
2022-09-16T18:19:06.671Z,82.96
2022-09-16T18:21:34.093Z,83.29
2022-09-16T18:24:02.761Z,83.48
2022-09-16T18:26:31.065Z,83.41
2022-09-16T18:29:16.152Z,83.50
2022-09-16T18:31:46.586Z,83.51
2022-09-16T18:34:15.230Z,83.92
2022-09-16T18:36:42.724Z,84.12
2022-09-16T18:39:15.414Z,84.11
2022-09-16T18:41:45.098Z,84.03
2022-09-16T18:44:16.160Z,84.02
2022-09-16T18:46:43.694Z,84.02
2022-09-16T18:49:13.192Z,84.14
2022-09-16T18:51:50.514Z,84.08
2022-09-16T18:54:24.973Z,84.22
2022-09-16T18:56:53.185Z,84.56
2022-09-16T18:59:23.686Z,84.87
2022-09-16T19:01:53.674Z,85.24
2022-09-16T19:04:23.994Z,85.49
2022-09-16T19:06:54.066Z,85.96
2022-09-16T19:09:23.953Z,86.15
2022-09-16T19:11:55.016Z,86.10
2022-09-16T19:14:24.847Z,86.03
2022-09-16T19:16:52.671Z,86.00
2022-09-16T19:19:22.595Z,85.82
2022-09-16T19:21:50.035Z,85.55
2022-09-16T19:24:20.075Z,85.29
2022-09-16T19:26:48.871Z,85.12
2022-09-16T19:29:17.195Z,85.05
2022-09-16T19:31:46.085Z,84.85
2022-09-16T19:34:15.325Z,84.95
2022-09-16T19:36:42.976Z,84.73
2022-09-16T19:39:12.286Z,84.46
2022-09-16T19:41:40.934Z,84.36
2022-09-16T19:44:12.083Z,84.38
2022-09-16T19:46:42.509Z,84.24
2022-09-16T19:49:15.878Z,84.31
2022-09-16T19:51:43.262Z,84.32
2022-09-16T19:54:11.212Z,84.24
2022-09-16T19:56:38.453Z,84.24
2022-09-16T19:59:06.198Z,84.09
2022-09-16T20:01:35.721Z,83.86
2022-09-16T20:04:06.581Z,83.82
2022-09-16T20:06:39.492Z,83.74
2022-09-16T20:09:11.774Z,83.73
2022-09-16T20:11:42.076Z,83.59
2022-09-16T20:14:18.780Z,83.62
2022-09-16T20:16:47.005Z,83.56
2022-09-16T20:19:15.812Z,83.84
2022-09-16T20:21:44.117Z,83.49
2022-09-16T20:24:18.071Z,83.50
2022-09-16T20:26:46.711Z,83.51
2022-09-16T20:29:14.506Z,83.65
2022-09-16T20:31:41.831Z,83.92
2022-09-16T20:34:10.297Z,83.67
2022-09-16T20:36:38.995Z,83.55
2022-09-16T20:39:07.648Z,83.80
2022-09-16T20:41:36.278Z,83.79
2022-09-16T20:44:04.649Z,83.75
2022-09-16T20:46:34.806Z,83.75
2022-09-16T20:49:03.641Z,83.77
2022-09-16T20:51:33.533Z,83.91
2022-09-16T20:54:07.712Z,83.92
2022-09-16T20:56:38.844Z,83.92
2022-09-16T20:59:12.162Z,84.23
2022-09-16T21:01:41.589Z,84.46
2022-09-16T21:04:18.029Z,84.57
2022-09-16T21:06:45.650Z,85.01
2022-09-16T21:09:15.191Z,85.68
2022-09-16T21:11:44.923Z,85.91
2022-09-16T21:14:16.111Z,86.34
2022-09-16T21:16:45.585Z,86.49
2022-09-16T21:19:13.971Z,86.52
2022-09-16T21:21:44.406Z,86.50
2022-09-16T21:24:13.152Z,86.50
2022-09-16T21:26:41.356Z,86.55
2022-09-16T21:29:11.483Z,86.47
2022-09-16T21:31:41.134Z,86.48
2022-09-16T21:34:17.014Z,86.57
2022-09-16T21:36:45.145Z,86.45
2022-09-16T21:39:17.131Z,86.52
2022-09-16T21:41:45.655Z,86.85
2022-09-16T21:44:14.148Z,87.35
2022-09-16T21:46:45.264Z,87.30
2022-09-16T21:49:22.263Z,87.34
2022-09-16T21:51:50.643Z,87.35
2022-09-16T21:54:20.362Z,87.39
2022-09-16T21:56:48.572Z,87.64
2022-09-16T21:59:16.825Z,87.73
2022-09-16T22:01:44.234Z,87.98
2022-09-16T22:04:14.133Z,87.96
2022-09-16T22:06:41.835Z,88.00
2022-09-16T22:09:10.245Z,88.04
2022-09-16T22:11:39.497Z,87.92
2022-09-16T22:14:07.840Z,87.94
2022-09-16T22:16:37.449Z,87.94
2022-09-16T22:19:11.270Z,87.93
2022-09-16T22:21:41.548Z,88.10
2022-09-16T22:24:10.031Z,88.24
2022-09-16T22:26:37.987Z,88.38
2022-09-16T22:29:06.487Z,88.77
2022-09-16T22:31:36.065Z,88.77
2022-09-16T22:34:04.130Z,88.89
2022-09-16T22:36:34.036Z,88.94
2022-09-16T22:39:05.432Z,89.13
2022-09-16T22:41:33.605Z,89.01
2022-09-16T22:44:01.253Z,89.00
2022-09-16T22:46:31.109Z,89.12
2022-09-16T22:48:59.639Z,89.12
2022-09-16T22:51:27.918Z,88.94
2022-09-16T22:53:55.536Z,88.74
2022-09-16T22:56:26.059Z,88.65
2022-09-16T22:58:55.223Z,88.55
2022-09-16T23:01:25.775Z,88.65
2022-09-16T23:03:56.148Z,88.70
2022-09-16T23:06:27.727Z,88.68
2022-09-16T23:08:54.992Z,88.92
2022-09-16T23:11:24.595Z,88.87
2022-09-16T23:13:54.914Z,88.88
2022-09-16T23:16:30.229Z,89.06
2022-09-16T23:18:59.823Z,89.13
2022-09-16T23:21:27.519Z,89.46
2022-09-16T23:23:57.106Z,89.45
2022-09-16T23:26:28.045Z,89.66
2022-09-16T23:28:57.024Z,89.88
2022-09-16T23:31:27.621Z,89.81
2022-09-16T23:33:56.053Z,89.82
2022-09-16T23:36:25.115Z,89.84
2022-09-16T23:38:53.769Z,89.70
2022-09-16T23:41:26.610Z,89.81
2022-09-16T23:43:55.637Z,89.79
2022-09-16T23:46:25.800Z,89.90
2022-09-16T23:48:53.519Z,90.23
2022-09-16T23:51:27.836Z,90.28
2022-09-16T23:53:57.637Z,90.45
2022-09-16T23:56:25.343Z,90.44
2022-09-16T23:58:53.515Z,90.28
